Time;durP1;ratioP1;P1;durP2;ratioP2;P2;SDS_P1;SDS_P2;PMS_P1;PMS_P2;Temp;Humidity;BMP_temperature;BMP_pressure;BME280_temperature;BME280_humidity;BME280_pressure;Samples;Min_cycle;Max_cycle;Signal;HPM_P1;HPM_P2
2024/03/16 00:00:18;;;;;;;0.93;0.50;;;;;;;;;;4967771;28;20109;-81
2024/03/16 00:02:45;;;;;;;2.95;0.88;;;;;;;;;;4967019;28;20055;-81
2024/03/16 00:05:12;;;;;;;0.40;0.40;;;;;;;;;;4967302;28;20090;-81
2024/03/16 00:07:38;;;;;;;2.53;1.58;;;;;;;;;;4968672;28;20089;-82
2024/03/16 00:10:06;;;;;;;1.67;0.73;;;;;;;;;;4967096;28;20059;-82
2024/03/16 00:12:34;;;;;;;3.22;1.08;;;;;;;;;;4966708;28;20059;-81
2024/03/16 00:15:00;;;;;;;0.43;0.40;;;;;;;;;;4983187;28;20057;-81
2024/03/16 00:17:27;;;;;;;0.85;0.68;;;;;;;;;;4982930;28;20425;-82
2024/03/16 00:19:55;;;;;;;1.13;0.50;;;;;;;;;;4971877;28;20066;-81
2024/03/16 00:22:21;;;;;;;4.88;0.60;;;;;;;;;;4975219;28;20059;-82
2024/03/16 00:24:48;;;;;;;0.93;0.40;;;;;;;;;;4983307;28;20450;-82
2024/03/16 00:27:14;;;;;;;0.50;0.50;;;;;;;;;;4982903;28;20055;-81
2024/03/16 00:29:41;;;;;;;0.73;0.50;;;;;;;;;;4967335;28;20453;-81
2024/03/16 00:32:08;;;;;;;0.40;0.30;;;;;;;;;;4965858;28;20101;-81
2024/03/16 00:34:35;;;;;;;1.95;0.50;;;;;;;;;;4967096;28;20051;-81
2024/03/16 00:37:04;;;;;;;0.30;0.30;;;;;;;;;;4982961;28;20054;-82
2024/03/16 00:39:31;;;;;;;2.05;0.50;;;;;;;;;;4982198;28;20453;-81
2024/03/16 00:42:01;;;;;;;0.80;0.40;;;;;;;;;;4982464;28;20050;-81
2024/03/16 00:44:27;;;;;;;0.80;0.40;;;;;;;;;;4970493;28;20047;-81
2024/03/16 00:46:54;;;;;;;0.35;0.30;;;;;;;;;;4982361;28;20051;-82
2024/03/16 00:49:21;;;;;;;0.35;0.28;;;;;;;;;;4966497;28;20047;-81
2024/03/16 00:51:47;;;;;;;0.38;0.20;;;;;;;;;;4962531;28;20126;-82
2024/03/16 00:54:14;;;;;;;0.40;0.20;;;;;;;;;;4985289;28;20051;-82
2024/03/16 00:56:41;;;;;;;2.70;0.30;;;;;;;;;;4972105;28;20145;-82
2024/03/16 00:59:08;;;;;;;1.48;0.30;;;;;;;;;;4981743;28;20070;-81
2024/03/16 01:01:34;;;;;;;1.35;0.30;;;;;;;;;;4969824;28;20055;-81
2024/03/16 01:04:02;;;;;;;0.28;0.22;;;;;;;;;;4985831;28;20046;-81
2024/03/16 01:06:29;;;;;;;1.05;0.10;;;;;;;;;;4986760;28;20127;-81
2024/03/16 01:08:56;;;;;;;0.63;0.20;;;;;;;;;;4987301;28;20071;-80
2024/03/16 01:11:25;;;;;;;0.85;0.30;;;;;;;;;;4966011;28;20485;-81
2024/03/16 01:13:52;;;;;;;0.90;0.30;;;;;;;;;;4958833;28;20078;-81
2024/03/16 01:16:19;;;;;;;0.63;0.32;;;;;;;;;;4958841;28;20062;-81
2024/03/16 01:18:45;;;;;;;0.43;0.30;;;;;;;;;;4976505;28;20677;-81
2024/03/16 01:21:12;;;;;;;0.60;0.20;;;;;;;;;;4975602;28;20058;-81
2024/03/16 01:23:39;;;;;;;0.15;0.10;;;;;;;;;;4978417;28;20086;-80
2024/03/16 01:26:05;;;;;;;0.22;0.20;;;;;;;;;;4972066;28;20062;-81
2024/03/16 01:28:32;;;;;;;1.10;0.32;;;;;;;;;;4984238;28;20146;-80
2024/03/16 01:30:59;;;;;;;0.57;0.30;;;;;;;;;;4966208;28;20420;-80
2024/03/16 01:33:26;;;;;;;0.35;0.20;;;;;;;;;;4979794;28;20167;-80
2024/03/16 01:35:55;;;;;;;2.03;0.28;;;;;;;;;;4962739;28;20101;-81
2024/03/16 01:38:22;;;;;;;0.35;0.20;;;;;;;;;;4978819;28;20150;-81
2024/03/16 01:40:49;;;;;;;0.60;0.28;;;;;;;;;;4987495;28;20058;-81
2024/03/16 01:43:17;;;;;;;2.13;1.00;;;;;;;;;;4961432;28;20118;-81
2024/03/16 01:45:43;;;;;;;0.20;0.20;;;;;;;;;;4962751;28;20051;-80
2024/03/16 01:48:10;;;;;;;1.35;0.30;;;;;;;;;;4962494;28;20137;-79
2024/03/16 01:50:39;;;;;;;0.20;0.20;;;;;;;;;;4962418;28;20059;-81
2024/03/16 01:53:07;;;;;;;1.33;0.20;;;;;;;;;;4962184;28;20522;-80
2024/03/16 01:55:33;;;;;;;0.22;0.22;;;;;;;;;;4971122;28;20057;-81
2024/03/16 01:58:00;;;;;;;0.73;0.20;;;;;;;;;;4994961;28;20398;-80
2024/03/16 02:00:27;;;;;;;0.38;0.13;;;;;;;;;;4962132;28;20055;-81
2024/03/16 02:02:54;;;;;;;0.80;0.30;;;;;;;;;;4986540;28;20062;-81
2024/03/16 02:05:20;;;;;;;1.60;0.35;;;;;;;;;;4980882;28;20074;-80
2024/03/16 02:07:48;;;;;;;1.00;0.20;;;;;;;;;;4974418;28;20058;-79
2024/03/16 02:10:15;;;;;;;1.17;0.70;;;;;;;;;;4975248;28;20130;-80
2024/03/16 02:12:42;;;;;;;0.45;0.13;;;;;;;;;;4966227;28;20142;-80
2024/03/16 02:15:09;;;;;;;2.13;0.40;;;;;;;;;;4966200;28;20416;-81
2024/03/16 02:17:37;;;;;;;0.60;0.30;;;;;;;;;;4970843;28;20115;-80
2024/03/16 02:20:08;;;;;;;2.38;0.30;;;;;;;;;;4979935;28;20110;-80
2024/03/16 02:22:35;;;;;;;1.05;0.30;;;;;;;;;;4966077;28;20058;-80
2024/03/16 02:25:03;;;;;;;2.60;0.20;;;;;;;;;;4965371;28;20093;-80
2024/03/16 02:27:29;;;;;;;0.20;0.20;;;;;;;;;;4982013;28;20054;-80
2024/03/16 02:29:56;;;;;;;0.80;0.30;;;;;;;;;;4981715;28;20050;-80
2024/03/16 02:32:24;;;;;;;1.08;0.20;;;;;;;;;;4981259;28;20061;-80
2024/03/16 02:34:50;;;;;;;1.42;0.22;;;;;;;;;;4981822;28;20062;-80
2024/03/16 02:37:18;;;;;;;0.98;0.43;;;;;;;;;;4981270;28;20054;-80
2024/03/16 02:39:45;;;;;;;1.75;0.30;;;;;;;;;;4966033;28;20054;-80
2024/03/16 02:42:12;;;;;;;1.55;0.30;;;;;;;;;;4989683;28;20062;-80
2024/03/16 02:44:40;;;;;;;1.70;0.40;;;;;;;;;;4964392;28;20274;-81
2024/03/16 02:47:08;;;;;;;7.78;0.50;;;;;;;;;;4980418;28;20548;-80
2024/03/16 02:49:35;;;;;;;2.00;0.47;;;;;;;;;;4999577;28;20104;-80
2024/03/16 02:52:03;;;;;;;0.70;0.25;;;;;;;;;;4983933;28;20077;-80
2024/03/16 02:54:30;;;;;;;1.55;0.32;;;;;;;;;;4999796;28;20050;-80
2024/03/16 02:56:57;;;;;;;0.75;0.55;;;;;;;;;;5000026;28;20065;-81
2024/03/16 02:59:24;;;;;;;0.22;0.22;;;;;;;;;;4996343;28;20086;-80
2024/03/16 03:01:51;;;;;;;3.85;0.20;;;;;;;;;;4995659;28;20493;-80
2024/03/16 03:04:18;;;;;;;0.60;0.30;;;;;;;;;;4999696;28;20050;-80
2024/03/16 03:06:44;;;;;;;0.20;0.20;;;;;;;;;;4999281;28;20472;-81
2024/03/16 03:09:13;;;;;;;0.98;0.30;;;;;;;;;;4999688;28;20046;-80
2024/03/16 03:11:40;;;;;;;0.30;0.20;;;;;;;;;;4999714;28;20491;-81
2024/03/16 03:14:07;;;;;;;1.63;0.25;;;;;;;;;;5000486;28;20058;-80
2024/03/16 03:16:33;;;;;;;0.65;0.20;;;;;;;;;;5000862;28;20054;-81
2024/03/16 03:19:00;;;;;;;0.80;0.50;;;;;;;;;;5077196;23;20144;-80
2024/03/16 03:21:28;;;;;;;0.85;0.30;;;;;;;;;;5026704;28;20050;-80
2024/03/16 03:23:56;;;;;;;1.40;0.30;;;;;;;;;;5027259;28;20061;-80
2024/03/16 03:26:23;;;;;;;1.95;0.40;;;;;;;;;;5010928;28;20495;-80
2024/03/16 03:28:50;;;;;;;1.25;0.60;;;;;;;;;;5040117;28;20113;-80
2024/03/16 03:31:17;;;;;;;1.02;0.30;;;;;;;;;;5041184;28;20046;-80
2024/03/16 03:33:44;;;;;;;0.43;0.28;;;;;;;;;;5044519;28;20499;-80
2024/03/16 03:36:11;;;;;;;0.32;0.20;;;;;;;;;;5027623;28;20054;-80
2024/03/16 03:38:38;;;;;;;0.57;0.20;;;;;;;;;;5043964;28;20108;-80
2024/03/16 03:41:04;;;;;;;1.30;0.20;;;;;;;;;;5027533;28;20054;-80
2024/03/16 03:43:33;;;;;;;1.10;0.40;;;;;;;;;;5027772;28;20176;-80
2024/03/16 03:46:00;;;;;;;0.30;0.20;;;;;;;;;;5028150;28;20214;-80
2024/03/16 03:48:36;;;;;;;0.73;0.20;;;;;;;;;;5043672;28;20089;-80
2024/03/16 03:51:03;;;;;;;2.92;0.30;;;;;;;;;;5043994;28;20053;-80
2024/03/16 03:53:30;;;;;;;0.38;0.20;;;;;;;;;;5011537;28;20110;-80
2024/03/16 03:55:57;;;;;;;0.22;0.22;;;;;;;;;;5045406;28;20105;-80
2024/03/16 03:58:24;;;;;;;0.32;0.17;;;;;;;;;;5027705;28;20392;-80
2024/03/16 04:00:50;;;;;;;0.75;0.35;;;;;;;;;;4995118;28;20129;-80
2024/03/16 04:03:17;;;;;;;0.45;0.40;;;;;;;;;;5043558;28;20049;-80
2024/03/16 04:05:44;;;;;;;0.65;0.30;;;;;;;;;;5010987;28;20057;-80
2024/03/16 04:08:10;;;;;;;0.57;0.47;;;;;;;;;;5010769;28;20085;-80
2024/03/16 04:10:37;;;;;;;1.10;0.45;;;;;;;;;;5011278;28;20050;-80
2024/03/16 04:13:04;;;;;;;0.63;0.22;;;;;;;;;;5027119;28;20105;-80
2024/03/16 04:15:31;;;;;;;0.40;0.28;;;;;;;;;;5011076;28;20128;-80
2024/03/16 04:17:57;;;;;;;1.35;0.40;;;;;;;;;;5058046;28;20081;-79
2024/03/16 04:20:24;;;;;;;2.03;0.50;;;;;;;;;;5040218;28;20058;-80
2024/03/16 04:22:51;;;;;;;2.97;0.60;;;;;;;;;;5044474;28;20064;-80
2024/03/16 04:25:18;;;;;;;0.95;0.30;;;;;;;;;;5010959;28;20496;-80
2024/03/16 04:27:45;;;;;;;0.93;0.40;;;;;;;;;;5027405;28;20137;-80
2024/03/16 04:30:12;;;;;;;0.30;0.30;;;;;;;;;;5044011;28;20042;-80
2024/03/16 04:32:38;;;;;;;0.47;0.30;;;;;;;;;;5011781;28;20421;-80
2024/03/16 04:35:05;;;;;;;2.83;0.38;;;;;;;;;;5000150;28;20060;-80
2024/03/16 04:37:33;;;;;;;1.35;0.60;;;;;;;;;;5018849;28;20057;-79
2024/03/16 04:40:00;;;;;;;3.40;0.47;;;;;;;;;;5020538;28;20061;-80
2024/03/16 04:42:29;;;;;;;2.13;0.63;;;;;;;;;;5017920;28;20062;-80
2024/03/16 04:44:55;;;;;;;0.93;0.50;;;;;;;;;;4997885;28;20054;-80
2024/03/16 04:47:22;;;;;;;0.50;0.47;;;;;;;;;;4999153;28;20084;-80
2024/03/16 04:49:49;;;;;;;2.53;0.50;;;;;;;;;;5014045;28;20097;-80
2024/03/16 04:52:15;;;;;;;1.85;0.38;;;;;;;;;;5014329;28;20149;-79
2024/03/16 04:54:42;;;;;;;1.65;0.40;;;;;;;;;;4998238;28;20068;-79
2024/03/16 04:57:09;;;;;;;1.35;0.57;;;;;;;;;;5014532;28;20054;-80
2024/03/16 04:59:35;;;;;;;3.63;0.95;;;;;;;;;;5014157;28;20085;-81
2024/03/16 05:02:02;;;;;;;2.17;0.57;;;;;;;;;;5014264;28;20137;-80
2024/03/16 05:04:29;;;;;;;1.25;0.30;;;;;;;;;;5013782;28;20082;-80
2024/03/16 05:06:55;;;;;;;1.00;0.38;;;;;;;;;;4997802;28;20069;-80
2024/03/16 05:09:22;;;;;;;1.23;0.50;;;;;;;;;;5013783;28;20056;-80
2024/03/16 05:11:49;;;;;;;0.77;0.40;;;;;;;;;;4997694;28;20058;-80
2024/03/16 05:14:15;;;;;;;0.85;0.40;;;;;;;;;;4997855;28;20085;-80
2024/03/16 05:16:42;;;;;;;1.25;0.40;;;;;;;;;;5014399;28;20112;-82
2024/03/16 05:19:08;;;;;;;1.17;0.38;;;;;;;;;;5014222;28;20096;-80
2024/03/16 05:21:35;;;;;;;0.90;0.63;;;;;;;;;;5014758;28;20076;-80
2024/03/16 05:24:02;;;;;;;2.88;0.52;;;;;;;;;;4997458;28;20049;-80
2024/03/16 05:26:30;;;;;;;1.20;0.70;;;;;;;;;;4997878;28;20046;-80
2024/03/16 05:28:57;;;;;;;1.92;0.75;;;;;;;;;;5014527;28;20475;-80
2024/03/16 05:31:24;;;;;;;1.45;0.40;;;;;;;;;;5014787;28;20583;-80
2024/03/16 05:33:50;;;;;;;1.75;0.50;;;;;;;;;;5014305;28;20137;-80
2024/03/16 05:36:17;;;;;;;0.73;0.35;;;;;;;;;;5021586;28;20045;-80
2024/03/16 05:38:45;;;;;;;1.25;0.40;;;;;;;;;;5030666;28;20409;-80
2024/03/16 05:41:12;;;;;;;2.42;0.80;;;;;;;;;;5017738;28;20046;-81
2024/03/16 05:43:41;;;;;;;2.17;0.57;;;;;;;;;;4998537;28;20053;-80
2024/03/16 05:46:08;;;;;;;1.20;0.40;;;;;;;;;;5013995;28;20137;-80
2024/03/16 05:48:34;;;;;;;2.47;0.50;;;;;;;;;;4998309;28;20054;-80
2024/03/16 05:51:02;;;;;;;1.20;0.60;;;;;;;;;;4998056;28;20045;-80
2024/03/16 05:53:29;;;;;;;1.13;0.65;;;;;;;;;;4998201;28;20496;-80
2024/03/16 05:55:56;;;;;;;0.65;0.40;;;;;;;;;;5014218;28;20049;-80
2024/03/16 05:58:22;;;;;;;2.80;0.70;;;;;;;;;;4997855;28;20135;-80
2024/03/16 06:00:49;;;;;;;0.32;0.20;;;;;;;;;;4998050;28;20061;-80
2024/03/16 06:03:16;;;;;;;1.50;0.82;;;;;;;;;;4998116;28;20049;-80
2024/03/16 06:05:45;;;;;;;2.03;0.55;;;;;;;;;;5014008;28;20052;-79
2024/03/16 06:08:13;;;;;;;1.00;0.50;;;;;;;;;;5014505;28;20229;-80
2024/03/16 06:10:41;;;;;;;0.65;0.40;;;;;;;;;;5014288;28;20599;-80
2024/03/16 06:13:10;;;;;;;0.93;0.40;;;;;;;;;;5014970;28;20054;-80
2024/03/16 06:15:39;;;;;;;2.03;0.38;;;;;;;;;;5019793;28;20061;-80
2024/03/16 06:18:06;;;;;;;0.75;0.30;;;;;;;;;;5019855;28;20165;-80
2024/03/16 06:20:33;;;;;;;4.22;0.50;;;;;;;;;;5035129;28;20112;-80
2024/03/16 06:22:59;;;;;;;1.02;0.85;;;;;;;;;;5017782;28;20061;-80
2024/03/16 06:25:29;;;;;;;1.05;0.50;;;;;;;;;;5012429;28;20050;-80
2024/03/16 06:28:05;;;;;;;2.50;0.82;;;;;;;;;;5012895;28;20118;-80
2024/03/16 06:30:33;;;;;;;1.60;0.88;;;;;;;;;;4998572;28;20077;-80
2024/03/16 06:33:06;;;;;;;0.50;0.50;;;;;;;;;;4996757;28;20122;-80
2024/03/16 06:35:33;;;;;;;2.00;0.40;;;;;;;;;;5014608;28;20057;-80
2024/03/16 06:38:00;;;;;;;0.80;0.40;;;;;;;;;;5026966;28;20068;-81
2024/03/16 06:40:26;;;;;;;0.70;0.70;;;;;;;;;;5040665;28;20080;-81
2024/03/16 06:42:53;;;;;;;3.58;0.60;;;;;;;;;;5033155;28;20428;-80
2024/03/16 06:45:19;;;;;;;0.55;0.28;;;;;;;;;;5043769;28;20057;-80
2024/03/16 06:47:46;;;;;;;0.30;0.30;;;;;;;;;;5020806;28;20069;-80
2024/03/16 06:50:13;;;;;;;0.95;0.35;;;;;;;;;;5014328;28;20164;-79
2024/03/16 06:52:39;;;;;;;1.17;0.60;;;;;;;;;;5031268;28;20046;-81
2024/03/16 06:55:09;;;;;;;0.80;0.25;;;;;;;;;;5039001;28;20137;-81
2024/03/16 06:57:36;;;;;;;1.08;0.30;;;;;;;;;;5021411;28;20510;-81
2024/03/16 07:00:03;;;;;;;1.65;0.65;;;;;;;;;;5007921;28;20546;-80
2024/03/16 07:02:30;;;;;;;1.30;0.40;;;;;;;;;;5057820;28;20108;-80
2024/03/16 07:04:57;;;;;;;0.77;0.20;;;;;;;;;;5005593;28;20077;-81
2024/03/16 07:07:23;;;;;;;1.85;0.65;;;;;;;;;;5053076;28;20476;-80
2024/03/16 07:09:50;;;;;;;1.55;0.50;;;;;;;;;;5049375;28;20579;-80
2024/03/16 07:12:17;;;;;;;3.15;0.55;;;;;;;;;;5049020;28;20105;-80
2024/03/16 07:14:43;;;;;;;0.55;0.40;;;;;;;;;;5004816;28;20118;-80
2024/03/16 07:17:10;;;;;;;1.00;0.20;;;;;;;;;;5014512;28;20053;-80
2024/03/16 07:19:37;;;;;;;1.38;0.55;;;;;;;;;;5048098;28;20424;-81
2024/03/16 07:22:04;;;;;;;2.90;0.40;;;;;;;;;;5030816;28;20089;-80
2024/03/16 07:24:30;;;;;;;3.58;0.52;;;;;;;;;;4998161;28;20502;-81
2024/03/16 07:26:57;;;;;;;0.45;0.45;;;;;;;;;;5014405;28;20314;-80
2024/03/16 07:29:24;;;;;;;3.35;1.10;;;;;;;;;;5015215;28;20050;-80
2024/03/16 07:31:50;;;;;;;1.63;0.40;;;;;;;;;;4999092;28;20082;-81
2024/03/16 07:34:17;;;;;;;1.23;0.30;;;;;;;;;;5022595;28;20081;-81
2024/03/16 07:36:44;;;;;;;0.77;0.30;;;;;;;;;;4998368;28;20050;-81
2024/03/16 07:39:11;;;;;;;1.63;0.50;;;;;;;;;;5014562;28;20077;-80
2024/03/16 07:41:37;;;;;;;2.17;1.20;;;;;;;;;;5014886;28;20065;-81
2024/03/16 07:44:04;;;;;;;2.58;0.47;;;;;;;;;;5023796;28;20084;-80
2024/03/16 07:46:30;;;;;;;2.63;0.57;;;;;;;;;;5008370;28;20054;-80
2024/03/16 07:48:59;;;;;;;3.42;1.00;;;;;;;;;;5013395;28;20045;-80
2024/03/16 07:51:29;;;;;;;1.20;0.50;;;;;;;;;;5014258;28;20046;-81
2024/03/16 07:53:56;;;;;;;1.63;0.50;;;;;;;;;;5014207;28;20053;-80
2024/03/16 07:56:22;;;;;;;0.80;0.47;;;;;;;;;;5015706;28;20480;-80
2024/03/16 07:58:49;;;;;;;3.72;0.60;;;;;;;;;;5016130;28;20534;-81
2024/03/16 08:01:16;;;;;;;3.00;1.88;;;;;;;;;;5048943;28;20146;-81
2024/03/16 08:03:43;;;;;;;12.88;7.03;;;;;;;;;;5016869;28;20054;-80
2024/03/16 08:06:10;;;;;;;34.70;21.08;;;;;;;;;;5032454;28;20050;-81
2024/03/16 08:08:37;;;;;;;11.38;6.97;;;;;;;;;;5018257;28;20112;-81
2024/03/16 08:11:07;;;;;;;9.93;6.68;;;;;;;;;;5035465;28;20444;-81
2024/03/16 08:13:34;;;;;;;9.98;5.57;;;;;;;;;;5036104;28;20049;-81
2024/03/16 08:16:01;;;;;;;2.00;1.13;;;;;;;;;;5019582;28;20062;-81
2024/03/16 08:18:28;;;;;;;2.05;1.00;;;;;;;;;;5035192;28;20077;-81
2024/03/16 08:20:58;;;;;;;2.40;1.05;;;;;;;;;;5052000;28;20058;-81
2024/03/16 08:23:24;;;;;;;2.83;1.90;;;;;;;;;;5051672;28;20058;-82
2024/03/16 08:25:51;;;;;;;2.20;1.40;;;;;;;;;;5018544;28;20137;-80
2024/03/16 08:28:18;;;;;;;3.35;1.15;;;;;;;;;;5019166;28;20133;-83
2024/03/16 08:30:44;;;;;;;3.65;1.70;;;;;;;;;;5018538;28;20484;-80
2024/03/16 08:33:11;;;;;;;2.35;0.88;;;;;;;;;;5018437;28;20093;-81
2024/03/16 08:35:38;;;;;;;2.13;1.02;;;;;;;;;;5002805;28;20050;-81
2024/03/16 08:38:05;;;;;;;1.27;0.70;;;;;;;;;;5021102;28;20058;-81
2024/03/16 08:40:32;;;;;;;1.10;0.75;;;;;;;;;;5004028;28;20073;-80
2024/03/16 08:42:59;;;;;;;1.60;0.77;;;;;;;;;;5054255;28;20087;-80
2024/03/16 08:45:25;;;;;;;3.22;0.70;;;;;;;;;;5056894;28;20077;-81
2024/03/16 08:47:52;;;;;;;2.75;0.50;;;;;;;;;;5022227;28;20076;-81
2024/03/16 08:50:19;;;;;;;2.65;0.98;;;;;;;;;;5054612;28;20491;-81
2024/03/16 08:53:14;;;;;;;0.85;0.60;;;;;;;;;;5055250;28;20085;-83
2024/03/16 08:55:58;;;;;;;1.65;0.63;;;;;;;;;;5035517;28;20046;-82
2024/03/16 08:58:25;;;;;;;1.23;0.40;;;;;;;;;;5006503;28;20081;-81
2024/03/16 09:00:53;;;;;;;1.27;0.30;;;;;;;;;;5022028;28;20503;-81
2024/03/16 09:03:20;;;;;;;0.77;0.40;;;;;;;;;;5020625;28;20425;-81
2024/03/16 09:05:46;;;;;;;3.03;0.52;;;;;;;;;;5019718;28;20510;-81
2024/03/16 09:08:13;;;;;;;0.82;0.60;;;;;;;;;;5019137;28;20053;-81
2024/03/16 09:10:40;;;;;;;4.45;0.95;;;;;;;;;;5019153;28;20046;-81
2024/03/16 09:13:06;;;;;;;3.45;1.27;;;;;;;;;;5003330;28;20053;-81
2024/03/16 09:15:33;;;;;;;2.25;0.50;;;;;;;;;;5018314;28;20141;-80
2024/03/16 09:18:00;;;;;;;1.10;0.40;;;;;;;;;;5002425;28;20050;-81
2024/03/16 09:20:27;;;;;;;1.48;0.52;;;;;;;;;;5001071;28;20137;-81
2024/03/16 09:22:56;;;;;;;2.33;0.38;;;;;;;;;;5001204;28;20053;-81
2024/03/16 09:25:22;;;;;;;0.40;0.40;;;;;;;;;;5017051;28;20057;-81
2024/03/16 09:27:49;;;;;;;2.60;0.50;;;;;;;;;;5017413;28;20104;-81
2024/03/16 09:30:18;;;;;;;2.05;0.50;;;;;;;;;;5001433;28;20088;-81
2024/03/16 09:32:44;;;;;;;2.13;0.60;;;;;;;;;;5017620;28;20472;-81
2024/03/16 09:35:11;;;;;;;1.45;0.50;;;;;;;;;;5017635;28;20049;-81
2024/03/16 09:37:37;;;;;;;0.57;0.40;;;;;;;;;;5017169;28;20480;-80
2024/03/16 09:40:10;;;;;;;0.55;0.32;;;;;;;;;;5017569;28;20100;-81
2024/03/16 09:42:38;;;;;;;1.08;0.30;;;;;;;;;;5033748;28;20053;-80
2024/03/16 09:45:07;;;;;;;1.20;0.40;;;;;;;;;;5050287;28;20057;-81
2024/03/16 09:47:32;;;;;;;0.98;0.35;;;;;;;;;;5034526;28;20431;-81
2024/03/16 09:49:58;;;;;;;2.67;0.70;;;;;;;;;;5001735;28;20089;-81
2024/03/16 09:52:23;;;;;;;1.05;0.50;;;;;;;;;;5005910;28;20060;-81
2024/03/16 09:54:49;;;;;;;2.17;0.45;;;;;;;;;;5005179;28;20560;-81
2024/03/16 09:57:15;;;;;;;0.60;0.20;;;;;;;;;;5005391;28;20108;-81
2024/03/16 09:59:48;;;;;;;1.48;0.52;;;;;;;;;;5001671;28;20050;-81
2024/03/16 10:02:13;;;;;;;;;;;;;;;;;;5003719;28;20050;-81
2024/03/16 10:04:39;;;;;;;0.95;0.50;;;;;;;;;;5034874;28;20031;-81
2024/03/16 10:07:04;;;;;;;0.68;0.40;;;;;;;;;;5002010;28;20065;-80
2024/03/16 10:09:30;;;;;;;2.30;0.38;;;;;;;;;;5001630;28;20053;-81
2024/03/16 10:12:03;;;;;;;1.15;0.30;;;;;;;;;;4984950;28;20113;-80
2024/03/16 10:14:29;;;;;;;0.98;0.30;;;;;;;;;;5015184;28;20100;-81
2024/03/16 10:16:55;;;;;;;1.38;0.30;;;;;;;;;;4994678;28;20145;-81
2024/03/16 10:19:22;;;;;;;0.93;0.45;;;;;;;;;;5009202;28;20424;-81
2024/03/16 10:21:49;;;;;;;1.23;0.20;;;;;;;;;;4997706;28;20058;-81
2024/03/16 10:24:14;;;;;;;0.40;0.20;;;;;;;;;;5001280;28;20064;-81
2024/03/16 10:26:40;;;;;;;2.13;0.50;;;;;;;;;;5017844;28;20435;-81
2024/03/16 10:29:07;;;;;;;0.50;0.32;;;;;;;;;;5002011;28;20284;-81
2024/03/16 10:31:32;;;;;;;1.30;0.80;;;;;;;;;;5018757;28;20112;-83
2024/03/16 10:34:01;;;;;;;1.23;0.30;;;;;;;;;;5019416;28;20049;-82
2024/03/16 10:36:27;;;;;;;2.65;0.32;;;;;;;;;;5035913;28;20475;-82
2024/03/16 10:38:53;;;;;;;0.13;0.13;;;;;;;;;;5002270;28;20138;-80
2024/03/16 10:41:18;;;;;;;0.80;0.20;;;;;;;;;;5034285;28;20061;-80
2024/03/16 10:43:44;;;;;;;0.70;0.50;;;;;;;;;;5033767;28;20127;-81
2024/03/16 10:46:09;;;;;;;0.38;0.30;;;;;;;;;;5034014;28;20053;-81
2024/03/16 10:48:38;;;;;;;0.30;0.30;;;;;;;;;;5034656;28;20049;-81
2024/03/16 10:51:08;;;;;;;1.10;0.40;;;;;;;;;;5001648;28;20049;-81
2024/03/16 10:53:34;;;;;;;1.60;0.80;;;;;;;;;;5001440;28;20054;-81
2024/03/16 10:56:00;;;;;;;1.27;0.30;;;;;;;;;;5019456;28;20087;-81
2024/03/16 10:58:25;;;;;;;0.47;0.28;;;;;;;;;;5004303;28;20049;-80
2024/03/16 11:00:54;;;;;;;1.48;0.20;;;;;;;;;;5037361;28;20065;-81
2024/03/16 11:03:27;;;;;;;1.00;0.57;;;;;;;;;;4987670;28;20053;-81
2024/03/16 11:06:01;;;;;;;0.73;0.30;;;;;;;;;;5002472;28;20077;-80
2024/03/16 11:08:33;;;;;;;0.85;0.32;;;;;;;;;;5017618;28;20060;-81
2024/03/16 11:10:59;;;;;;;0.63;0.20;;;;;;;;;;5001444;28;20062;-81
2024/03/16 11:13:25;;;;;;;0.45;0.10;;;;;;;;;;5000578;28;20050;-81
2024/03/16 11:15:51;;;;;;;0.90;0.20;;;;;;;;;;4982115;28;20046;-81
2024/03/16 11:18:16;;;;;;;1.55;0.30;;;;;;;;;;5003083;28;20443;-80
2024/03/16 11:20:43;;;;;;;0.52;0.20;;;;;;;;;;5009102;28;20046;-81
2024/03/16 11:23:22;;;;;;;1.60;0.30;;;;;;;;;;4988453;28;20054;-80
2024/03/16 11:25:48;;;;;;;0.82;0.50;;;;;;;;;;5013176;28;20054;-81
2024/03/16 11:28:14;;;;;;;0.77;0.30;;;;;;;;;;5014778;28;20538;-80
2024/03/16 11:30:40;;;;;;;1.05;0.32;;;;;;;;;;5009965;28;20062;-81
2024/03/16 11:33:15;;;;;;;0.70;0.50;;;;;;;;;;5005211;28;20054;-81
2024/03/16 11:35:40;;;;;;;0.35;0.17;;;;;;;;;;5006976;28;20050;-80
2024/03/16 11:38:12;;;;;;;0.15;0.10;;;;;;;;;;5008733;28;20053;-81
2024/03/16 11:40:41;;;;;;;0.60;0.17;;;;;;;;;;4994256;28;20057;-81
2024/03/16 11:43:08;;;;;;;1.20;0.20;;;;;;;;;;4987304;28;20105;-81
2024/03/16 11:45:34;;;;;;;0.20;0.10;;;;;;;;;;5001495;28;20050;-81
2024/03/16 11:48:00;;;;;;;0.90;0.22;;;;;;;;;;5017783;28;20050;-81
2024/03/16 11:50:26;;;;;;;0.30;0.30;;;;;;;;;;5002104;28;20046;-81
2024/03/16 11:52:52;;;;;;;1.13;0.25;;;;;;;;;;5002716;28;20524;-81
2024/03/16 11:55:24;;;;;;;0.15;0.10;;;;;;;;;;5003243;28;20061;-81
2024/03/16 11:57:49;;;;;;;0.20;0.10;;;;;;;;;;5009569;28;20054;-81
2024/03/16 12:00:17;;;;;;;1.35;0.35;;;;;;;;;;5030963;28;20072;-81
2024/03/16 12:02:43;;;;;;;0.40;0.40;;;;;;;;;;5023534;28;20056;-81
2024/03/16 12:05:09;;;;;;;0.60;0.30;;;;;;;;;;5022822;28;20046;-81
2024/03/16 12:07:34;;;;;;;0.25;0.25;;;;;;;;;;5024343;28;20073;-81
2024/03/16 12:10:01;;;;;;;0.20;0.20;;;;;;;;;;4990692;28;20084;-80
2024/03/16 12:12:27;;;;;;;0.20;0.17;;;;;;;;;;5020370;28;20055;-81
2024/03/16 12:15:14;;;;;;;0.30;0.22;;;;;;;;;;5020494;28;20058;-81
2024/03/16 12:17:43;;;;;;;0.20;0.20;;;;;;;;;;5007428;28;20057;-81
2024/03/16 12:20:09;;;;;;;0.40;0.40;;;;;;;;;;5005846;28;20054;-81
2024/03/16 12:22:41;;;;;;;0.47;0.20;;;;;;;;;;5039449;28;20076;-81
2024/03/16 12:25:07;;;;;;;0.68;0.32;;;;;;;;;;4990542;28;20050;-81
2024/03/16 12:27:33;;;;;;;1.35;0.47;;;;;;;;;;5021615;28;20049;-82
2024/03/16 12:30:03;;;;;;;0.93;0.90;;;;;;;;;;5004362;28;20527;-81
2024/03/16 12:32:29;;;;;;;1.67;1.00;;;;;;;;;;5018056;28;20057;-82
2024/03/16 12:34:54;;;;;;;0.93;0.40;;;;;;;;;;4999200;28;20125;-81
2024/03/16 12:37:20;;;;;;;1.20;0.40;;;;;;;;;;5007906;28;20065;-82
2024/03/16 12:39:45;;;;;;;0.50;0.45;;;;;;;;;;5006781;28;20056;-82
2024/03/16 12:42:11;;;;;;;0.50;0.30;;;;;;;;;;5005118;28;20053;-82
2024/03/16 12:44:37;;;;;;;0.60;0.40;;;;;;;;;;5003949;28;20085;-82
2024/03/16 12:47:02;;;;;;;0.30;0.30;;;;;;;;;;5020319;28;20085;-82
2024/03/16 12:49:28;;;;;;;0.20;0.20;;;;;;;;;;4990296;28;20065;-82
2024/03/16 12:51:53;;;;;;;0.40;0.30;;;;;;;;;;5019731;28;20062;-81
2024/03/16 12:54:19;;;;;;;4.53;0.40;;;;;;;;;;5006439;28;20050;-81
2024/03/16 12:56:47;;;;;;;0.43;0.40;;;;;;;;;;5022794;28;20081;-82
2024/03/16 12:59:13;;;;;;;0.75;0.30;;;;;;;;;;5004328;28;20061;-82
2024/03/16 13:01:40;;;;;;;0.80;0.20;;;;;;;;;;5002040;28;20062;-81
2024/03/16 13:04:06;;;;;;;0.63;0.30;;;;;;;;;;5001595;28;20058;-81
2024/03/16 13:06:31;;;;;;;2.25;1.67;;;;;;;;;;5005318;28;20046;-81
2024/03/16 13:08:57;;;;;;;7.00;5.45;;;;;;;;;;5006211;28;20447;-81
2024/03/16 13:11:25;;;;;;;5.10;4.60;;;;;;;;;;5002017;28;20491;-81
2024/03/16 13:13:50;;;;;;;1.67;1.10;;;;;;;;;;5001475;28;20046;-82
2024/03/16 13:16:17;;;;;;;0.85;0.40;;;;;;;;;;5021444;28;20111;-82
2024/03/16 13:18:43;;;;;;;2.00;0.50;;;;;;;;;;5026056;28;20119;-82
2024/03/16 13:21:10;;;;;;;1.00;0.65;;;;;;;;;;5024315;28;20508;-81
2024/03/16 13:23:39;;;;;;;1.35;0.50;;;;;;;;;;5002118;28;20058;-82
2024/03/16 13:26:08;;;;;;;0.57;0.50;;;;;;;;;;5001731;28;20050;-81
2024/03/16 13:28:34;;;;;;;0.52;0.43;;;;;;;;;;5003256;28;20058;-81
2024/03/16 13:30:59;;;;;;;1.10;0.57;;;;;;;;;;4999977;28;20108;-81
2024/03/16 13:33:25;;;;;;;0.50;0.50;;;;;;;;;;4990000;28;20169;-82
2024/03/16 13:35:53;;;;;;;0.50;0.32;;;;;;;;;;5006246;28;20057;-81
2024/03/16 13:38:19;;;;;;;0.45;0.40;;;;;;;;;;5006081;28;20054;-81
2024/03/16 13:40:45;;;;;;;0.98;0.50;;;;;;;;;;5005639;28;20373;-81
2024/03/16 13:43:13;;;;;;;1.65;1.00;;;;;;;;;;5004731;28;20092;-81
2024/03/16 13:45:40;;;;;;;1.02;0.47;;;;;;;;;;4999877;28;20066;-81
2024/03/16 13:48:07;;;;;;;1.00;0.70;;;;;;;;;;4998550;28;20050;-81
2024/03/16 13:50:33;;;;;;;1.02;0.57;;;;;;;;;;5019408;28;20042;-81
2024/03/16 13:52:59;;;;;;;1.40;0.40;;;;;;;;;;5002946;28;20045;-81
2024/03/16 13:55:25;;;;;;;0.40;0.35;;;;;;;;;;5019290;28;20124;-82
2024/03/16 13:57:50;;;;;;;1.45;0.40;;;;;;;;;;4987224;28;20062;-81
2024/03/16 14:00:18;;;;;;;2.60;0.50;;;;;;;;;;5019782;28;20061;-81
2024/03/16 14:02:47;;;;;;;0.73;0.65;;;;;;;;;;5002988;28;20058;-81
2024/03/16 14:05:13;;;;;;;0.40;0.30;;;;;;;;;;5002681;28;20058;-81
2024/03/16 14:07:39;;;;;;;2.65;0.68;;;;;;;;;;5000673;28;20065;-81
2024/03/16 14:10:06;;;;;;;1.15;0.45;;;;;;;;;;5022611;28;20046;-81
2024/03/16 14:12:32;;;;;;;1.27;0.47;;;;;;;;;;5012400;28;20441;-81
2024/03/16 14:14:57;;;;;;;2.17;0.45;;;;;;;;;;4992025;28;20132;-81
2024/03/16 14:17:24;;;;;;;1.15;0.80;;;;;;;;;;5002463;28;20058;-81
2024/03/16 14:19:53;;;;;;;0.70;0.70;;;;;;;;;;4999199;28;20066;-81
2024/03/16 14:22:22;;;;;;;0.88;0.68;;;;;;;;;;5002957;28;20053;-81
2024/03/16 14:24:51;;;;;;;0.75;0.50;;;;;;;;;;5005163;28;20046;-81
2024/03/16 14:27:17;;;;;;;0.88;0.40;;;;;;;;;;5004366;28;20061;-82
2024/03/16 14:29:42;;;;;;;1.20;0.63;;;;;;;;;;4986181;28;20061;-81
2024/03/16 14:32:08;;;;;;;0.85;0.55;;;;;;;;;;5004573;28;20069;-82
2024/03/16 14:34:34;;;;;;;1.42;0.40;;;;;;;;;;5004839;28;20084;-81
2024/03/16 14:36:59;;;;;;;0.60;0.30;;;;;;;;;;5004255;28;20065;-82
2024/03/16 14:39:27;;;;;;;1.17;0.40;;;;;;;;;;5005153;28;20489;-81
2024/03/16 14:41:55;;;;;;;1.15;0.30;;;;;;;;;;5037352;28;20072;-81